sensor_id;sensor_type;location;lat;lon;timestamp;pressure;altitude;pressure_sealevel;temperature;humidity
77281;BME280;66339;47.262;17.144;2023-12-20T00:01:29;100173.22;;;20.67;39.86
77281;BME280;66339;47.262;17.144;2023-12-20T00:03:59;100177.00;;;20.66;39.85
77281;BME280;66339;47.262;17.144;2023-12-20T00:06:38;100175.44;;;20.65;39.84
77281;BME280;66339;47.262;17.144;2023-12-20T00:09:08;100168.47;;;20.64;39.80
77281;BME280;66339;47.262;17.144;2023-12-20T00:11:47;100168.47;;;20.64;39.60
77281;BME280;66339;47.262;17.144;2023-12-20T00:14:20;100166.84;;;20.63;39.65
77281;BME280;66339;47.262;17.144;2023-12-20T00:16:56;100158.28;;;20.61;39.57
77281;BME280;66339;47.262;17.144;2023-12-20T00:19:25;100155.84;;;20.59;39.73
77281;BME280;66339;47.262;17.144;2023-12-20T00:21:52;100151.56;;;20.58;39.63
77281;BME280;66339;47.262;17.144;2023-12-20T00:24:22;100148.87;;;20.58;39.53
77281;BME280;66339;47.262;17.144;2023-12-20T00:26:58;100142.72;;;20.57;39.48
77281;BME280;66339;47.262;17.144;2023-12-20T00:29:28;100134.97;;;20.56;39.53
77281;BME280;66339;47.262;17.144;2023-12-20T00:31:59;100127.69;;;20.56;39.43
77281;BME280;66339;47.262;17.144;2023-12-20T00:34:36;100122.59;;;20.55;39.42
77281;BME280;66339;47.262;17.144;2023-12-20T00:37:09;100124.47;;;20.54;39.48
77281;BME280;66339;47.262;17.144;2023-12-20T00:39:39;100122.88;;;20.53;39.42
77281;BME280;66339;47.262;17.144;2023-12-20T00:42:12;100119.41;;;20.53;39.40
77281;BME280;66339;47.262;17.144;2023-12-20T00:44:42;100127.72;;;20.51;39.38
77281;BME280;66339;47.262;17.144;2023-12-20T00:47:15;100125.03;;;20.51;39.45
77281;BME280;66339;47.262;17.144;2023-12-20T00:49:42;100129.91;;;20.49;39.42
77281;BME280;66339;47.262;17.144;2023-12-20T00:52:23;100134.50;;;20.49;39.43
77281;BME280;66339;47.262;17.144;2023-12-20T00:54:50;100119.72;;;20.46;39.49
77281;BME280;66339;47.262;17.144;2023-12-20T00:57:23;100120.50;;;20.47;39.39
77281;BME280;66339;47.262;17.144;2023-12-20T00:59:58;100125.09;;;20.46;39.34
77281;BME280;66339;47.262;17.144;2023-12-20T01:02:28;100121.91;;;20.44;39.34
77281;BME280;66339;47.262;17.144;2023-12-20T01:05:02;100113.03;;;20.44;39.35
77281;BME280;66339;47.262;17.144;2023-12-20T01:07:35;100118.69;;;20.42;39.32
77281;BME280;66339;47.262;17.144;2023-12-20T01:10:08;100109.03;;;20.41;39.37
77281;BME280;66339;47.262;17.144;2023-12-20T01:12:38;100113.09;;;20.39;39.35
77281;BME280;66339;47.262;17.144;2023-12-20T01:15:08;100106.13;;;20.38;39.36
77281;BME280;66339;47.262;17.144;2023-12-20T01:17:35;100101.03;;;20.36;39.32
77281;BME280;66339;47.262;17.144;2023-12-20T01:20:07;100103.72;;;20.36;39.31
77281;BME280;66339;47.262;17.144;2023-12-20T01:22:40;100097.53;;;20.35;39.30
77281;BME280;66339;47.262;17.144;2023-12-20T01:25:08;100090.56;;;20.34;39.31
77281;BME280;66339;47.262;17.144;2023-12-20T01:27:35;100091.97;;;20.32;39.30
77281;BME280;66339;47.262;17.144;2023-12-20T01:30:08;100091.97;;;20.32;39.34
77281;BME280;66339;47.262;17.144;2023-12-20T01:32:45;100090.34;;;20.31;39.35
77281;BME280;66339;47.262;17.144;2023-12-20T01:35:13;100088.75;;;20.30;39.34
77281;BME280;66339;47.262;17.144;2023-12-20T01:37:49;100079.88;;;20.29;39.31
77281;BME280;66339;47.262;17.144;2023-12-20T01:40:19;100079.09;;;20.29;39.29
77281;BME280;66339;47.262;17.144;2023-12-20T01:43:04;100083.12;;;20.26;39.30
77281;BME280;66339;47.262;17.144;2023-12-20T01:45:36;100076.97;;;20.26;39.33
77281;BME280;66339;47.262;17.144;2023-12-20T01:48:10;100083.94;;;20.27;39.44
77281;BME280;66339;47.262;17.144;2023-12-20T01:50:37;100075.88;;;20.27;39.33
77281;BME280;66339;47.262;17.144;2023-12-20T01:53:07;100073.50;;;20.25;39.30
77281;BME280;66339;47.262;17.144;2023-12-20T01:55:42;100064.91;;;20.23;39.29
77281;BME280;66339;47.262;17.144;2023-12-20T01:58:13;100061.44;;;20.23;39.28
77281;BME280;66339;47.262;17.144;2023-12-20T02:00:40;100057.16;;;20.22;39.29
77281;BME280;66339;47.262;17.144;2023-12-20T02:03:14;100057.16;;;20.22;39.27
77281;BME280;66339;47.262;17.144;2023-12-20T02:05:47;100052.88;;;20.21;39.28
77281;BME280;66339;47.262;17.144;2023-12-20T02:08:17;100047.50;;;20.21;39.24
77281;BME280;66339;47.262;17.144;2023-12-20T02:10:45;100047.50;;;20.21;39.22
77281;BME280;66339;47.262;17.144;2023-12-20T02:13:22;100044.28;;;20.19;39.23
77281;BME280;66339;47.262;17.144;2023-12-20T02:15:51;100034.66;;;20.18;39.31
77281;BME280;66339;47.262;17.144;2023-12-20T02:18:25;100022.00;;;20.18;39.23
77281;BME280;66339;47.262;17.144;2023-12-20T02:20:52;100020.41;;;20.17;39.24
77281;BME280;66339;47.262;17.144;2023-12-20T02:23:19;100026.87;;;20.16;39.25
77281;BME280;66339;47.262;17.144;2023-12-20T02:25:53;100019.09;;;20.15;39.25
77281;BME280;66339;47.262;17.144;2023-12-20T02:28:24;100021.00;;;20.14;39.34
77281;BME280;66339;47.262;17.144;2023-12-20T02:30:54;100014.81;;;20.14;39.37
77281;BME280;66339;47.262;17.144;2023-12-20T02:33:21;100007.03;;;20.12;39.30
77281;BME280;66339;47.262;17.144;2023-12-20T02:35:48;100005.44;;;20.11;39.41
77281;BME280;66339;47.262;17.144;2023-12-20T02:38:15;100011.91;;;20.10;39.34
77281;BME280;66339;47.262;17.144;2023-12-20T02:40:51;100013.81;;;20.09;39.34
77281;BME280;66339;47.262;17.144;2023-12-20T02:43:18;100022.94;;;20.08;39.29
77281;BME280;66339;47.262;17.144;2023-12-20T02:45:45;100021.31;;;20.07;39.38
77281;BME280;66339;47.262;17.144;2023-12-20T02:48:18;100007.09;;;20.07;39.35
77281;BME280;66339;47.262;17.144;2023-12-20T02:50:49;100009.00;;;20.06;39.38
77281;BME280;66339;47.262;17.144;2023-12-20T02:53:17;100007.41;;;20.05;39.35
77281;BME280;66339;47.262;17.144;2023-12-20T02:55:44;100007.41;;;20.05;39.29
77281;BME280;66339;47.262;17.144;2023-12-20T02:58:14;100011.19;;;20.04;39.27
77281;BME280;66339;47.262;17.144;2023-12-20T03:00:41;100004.19;;;20.03;39.26
77281;BME280;66339;47.262;17.144;2023-12-20T03:03:14;99999.91;;;20.02;39.25
77281;BME280;66339;47.262;17.144;2023-12-20T03:05:52;99992.97;;;20.01;39.26
77281;BME280;66339;47.262;17.144;2023-12-20T03:08:25;99999.41;;;20.00;39.27
77281;BME280;66339;47.262;17.144;2023-12-20T03:10:56;100002.38;;;19.99;39.24
77281;BME280;66339;47.262;17.144;2023-12-20T03:13:27;100001.56;;;19.98;39.20
77281;BME280;66339;47.262;17.144;2023-12-20T03:15:54;100002.66;;;19.97;39.20
77281;BME280;66339;47.262;17.144;2023-12-20T03:18:21;99997.31;;;19.97;39.22
77281;BME280;66339;47.262;17.144;2023-12-20T03:20:54;100002.16;;;19.95;39.19
77281;BME280;66339;47.262;17.144;2023-12-20T03:23:27;100005.12;;;19.94;39.19
77281;BME280;66339;47.262;17.144;2023-12-20T03:26:01;100005.91;;;19.94;39.20
77281;BME280;66339;47.262;17.144;2023-12-20T03:28:31;100013.44;;;19.92;39.20
77281;BME280;66339;47.262;17.144;2023-12-20T03:31:01;100013.44;;;19.92;39.23
77281;BME280;66339;47.262;17.144;2023-12-20T03:33:29;100010.75;;;19.92;39.23
77281;BME280;66339;47.262;17.144;2023-12-20T03:36:09;100001.91;;;19.92;39.23
77281;BME280;66339;47.262;17.144;2023-12-20T03:38:36;99997.62;;;19.91;39.24
77281;BME280;66339;47.262;17.144;2023-12-20T03:41:06;99994.94;;;19.91;39.31
77281;BME280;66339;47.262;17.144;2023-12-20T03:43:39;100004.09;;;19.90;39.23
77281;BME280;66339;47.262;17.144;2023-12-20T03:46:09;99998.72;;;19.90;39.27
77281;BME280;66339;47.262;17.144;2023-12-20T03:48:38;100000.63;;;19.89;39.20
77281;BME280;66339;47.262;17.144;2023-12-20T03:51:11;100003.31;;;19.89;39.23
77281;BME280;66339;47.262;17.144;2023-12-20T03:53:38;99997.41;;;19.87;39.26
77281;BME280;66339;47.262;17.144;2023-12-20T03:56:11;99990.94;;;19.88;39.27
77281;BME280;66339;47.262;17.144;2023-12-20T03:58:38;99993.13;;;19.86;39.33
77281;BME280;66339;47.262;17.144;2023-12-20T04:01:09;99985.06;;;19.86;39.37
77281;BME280;66339;47.262;17.144;2023-12-20T04:03:37;100002.28;;;19.85;39.29
77281;BME280;66339;47.262;17.144;2023-12-20T04:06:07;99995.28;;;19.84;39.23
77281;BME280;66339;47.262;17.144;2023-12-20T04:08:34;99992.59;;;19.84;39.27
77281;BME280;66339;47.262;17.144;2023-12-20T04:11:08;99988.31;;;19.83;39.29
77281;BME280;66339;47.262;17.144;2023-12-20T04:13:38;99985.16;;;19.81;39.27
77281;BME280;66339;47.262;17.144;2023-12-20T04:16:11;99982.47;;;19.81;39.24
77281;BME280;66339;47.262;17.144;2023-12-20T04:18:47;99972.78;;;19.80;39.31
77281;BME280;66339;47.262;17.144;2023-12-20T04:21:17;99980.03;;;19.79;39.29
77281;BME280;66339;47.262;17.144;2023-12-20T04:23:47;99974.97;;;19.78;39.25
77281;BME280;66339;47.262;17.144;2023-12-20T04:26:17;99974.97;;;19.78;39.30
77281;BME280;66339;47.262;17.144;2023-12-20T04:28:53;99967.19;;;19.76;39.34
77281;BME280;66339;47.262;17.144;2023-12-20T04:31:30;99961.03;;;19.76;39.36
77281;BME280;66339;47.262;17.144;2023-12-20T04:33:57;99964.00;;;19.74;39.33
77281;BME280;66339;47.262;17.144;2023-12-20T04:36:24;99962.13;;;19.75;39.37
77281;BME280;66339;47.262;17.144;2023-12-20T04:38:53;99951.38;;;19.75;39.38
77281;BME280;66339;47.262;17.144;2023-12-20T04:41:21;99953.28;;;19.74;39.43
77281;BME280;66339;47.262;17.144;2023-12-20T04:43:47;99945.50;;;19.73;39.46
77281;BME280;66339;47.262;17.144;2023-12-20T04:46:22;99946.59;;;19.72;39.47
77281;BME280;66339;47.262;17.144;2023-12-20T04:48:52;99953.84;;;19.71;39.45
77281;BME280;66339;47.262;17.144;2023-12-20T04:51:22;99963.78;;;19.71;39.56
77281;BME280;66339;47.262;17.144;2023-12-20T04:53:55;99951.47;;;19.70;39.46
77281;BME280;66339;47.262;17.144;2023-12-20T04:56:22;99949.84;;;19.69;39.46
77281;BME280;66339;47.262;17.144;2023-12-20T04:58:52;99948.25;;;19.68;39.71
77281;BME280;66339;47.262;17.144;2023-12-20T05:01:22;99962.75;;;19.67;39.75
77281;BME280;66339;47.262;17.144;2023-12-20T05:03:51;99955.19;;;19.69;39.76
77281;BME280;66339;47.262;17.144;2023-12-20T05:06:17;99958.97;;;19.68;39.71
77281;BME280;66339;47.262;17.144;2023-12-20T05:08:44;99956.84;;;19.65;39.95
77281;BME280;66339;47.262;17.144;2023-12-20T05:11:14;99957.69;;;19.65;39.96
77281;BME280;66339;47.262;17.144;2023-12-20T05:13:41;99966.53;;;19.66;39.88
77281;BME280;66339;47.262;17.144;2023-12-20T05:16:18;99966.53;;;19.66;39.90
77281;BME280;66339;47.262;17.144;2023-12-20T05:18:53;99954.19;;;19.65;39.97
77281;BME280;66339;47.262;17.144;2023-12-20T05:21:23;99955.78;;;19.66;40.07
77281;BME280;66339;47.262;17.144;2023-12-20T05:23:52;99958.19;;;19.67;40.08
77281;BME280;66339;47.262;17.144;2023-12-20T05:26:24;99952.03;;;19.67;40.11
77281;BME280;66339;47.262;17.144;2023-12-20T05:29:01;99952.53;;;19.69;40.11
77281;BME280;66339;47.262;17.144;2023-12-20T05:31:31;99949.84;;;19.69;40.11
77281;BME280;66339;47.262;17.144;2023-12-20T05:33:58;99945.28;;;19.69;40.14
77281;BME280;66339;47.262;17.144;2023-12-20T05:36:33;99940.72;;;19.70;40.16
77281;BME280;66339;47.262;17.144;2023-12-20T05:39:09;99926.22;;;19.71;40.25
77281;BME280;66339;47.262;17.144;2023-12-20T05:41:39;99942.31;;;19.71;40.33
77281;BME280;66339;47.262;17.144;2023-12-20T05:44:10;99945.50;;;19.73;40.46
77281;BME280;66339;47.262;17.144;2023-12-20T05:46:39;99947.91;;;19.74;40.57
77281;BME280;66339;47.262;17.144;2023-12-20T05:49:06;99937.41;;;19.78;40.44
77281;BME280;66339;47.262;17.144;2023-12-20T05:51:33;99935.22;;;19.80;40.39
77281;BME280;66339;47.262;17.144;2023-12-20T05:54:03;99934.16;;;19.81;40.24
77281;BME280;66339;47.262;17.144;2023-12-20T05:56:36;99928.50;;;19.82;39.86
77281;BME280;66339;47.262;17.144;2023-12-20T05:59:09;99938.44;;;19.82;39.71
77281;BME280;66339;47.262;17.144;2023-12-20T06:01:36;99933.06;;;19.82;39.46
77281;BME280;66339;47.262;17.144;2023-12-20T06:04:06;99922.31;;;19.82;39.36
77281;BME280;66339;47.262;17.144;2023-12-20T06:06:32;99919.66;;;19.82;39.33
77281;BME280;66339;47.262;17.144;2023-12-20T06:08:59;99922.31;;;19.82;39.19
77281;BME280;66339;47.262;17.144;2023-12-20T06:11:29;99920.94;;;19.84;39.16
77281;BME280;66339;47.262;17.144;2023-12-20T06:13:56;99929.81;;;19.85;39.06
77281;BME280;66339;47.262;17.144;2023-12-20T06:16:30;99928.72;;;19.86;39.00
77281;BME280;66339;47.262;17.144;2023-12-20T06:19:03;99938.88;;;19.89;38.93
77281;BME280;66339;47.262;17.144;2023-12-20T06:21:30;99932.91;;;19.92;38.75
77281;BME280;66339;47.262;17.144;2023-12-20T06:24:02;99934.53;;;19.93;38.79
77281;BME280;66339;47.262;17.144;2023-12-20T06:26:35;99944.19;;;19.94;38.68
77281;BME280;66339;47.262;17.144;2023-12-20T06:29:02;99960.78;;;19.96;38.61
77281;BME280;66339;47.262;17.144;2023-12-20T06:31:31;99957.81;;;19.98;38.39
77281;BME280;66339;47.262;17.144;2023-12-20T06:34:02;99962.41;;;19.97;38.20
77281;BME280;66339;47.262;17.144;2023-12-20T06:36:29;99950.88;;;19.97;38.12
77281;BME280;66339;47.262;17.144;2023-12-20T06:38:59;99951.66;;;19.97;38.07
77281;BME280;66339;47.262;17.144;2023-12-20T06:41:26;99953.03;;;19.95;37.98
77281;BME280;66339;47.262;17.144;2023-12-20T06:43:59;99960.78;;;19.96;37.98
77281;BME280;66339;47.262;17.144;2023-12-20T06:46:26;99977.97;;;19.95;37.92
77281;BME280;66339;47.262;17.144;2023-12-20T06:48:54;99985.25;;;19.95;37.94
77281;BME280;66339;47.262;17.144;2023-12-20T06:51:21;100000.56;;;19.94;37.80
77281;BME280;66339;47.262;17.144;2023-12-20T06:53:52;100005.91;;;19.94;37.81
77281;BME280;66339;47.262;17.144;2023-12-20T06:56:19;100008.06;;;19.92;37.81
77281;BME280;66339;47.262;17.144;2023-12-20T06:58:46;100008.06;;;19.92;37.81
77281;BME280;66339;47.262;17.144;2023-12-20T07:01:19;100008.06;;;19.92;37.79
77281;BME280;66339;47.262;17.144;2023-12-20T07:03:49;100015.34;;;19.92;37.79
77281;BME280;66339;47.262;17.144;2023-12-20T07:06:18;100009.69;;;19.93;37.77
77281;BME280;66339;47.262;17.144;2023-12-20T07:08:45;100025.81;;;19.93;37.80
77281;BME280;66339;47.262;17.144;2023-12-20T07:11:19;100015.56;;;19.95;37.79
77281;BME280;66339;47.262;17.144;2023-12-20T07:13:48;100003.72;;;19.96;37.71
77281;BME280;66339;47.262;17.144;2023-12-20T07:16:19;99994.31;;;19.99;37.62
77281;BME280;66339;47.262;17.144;2023-12-20T07:18:49;99995.63;;;20.01;37.58
77281;BME280;66339;47.262;17.144;2023-12-20T07:21:22;99991.06;;;20.02;37.48
77281;BME280;66339;47.262;17.144;2023-12-20T07:23:49;99993.44;;;20.03;37.52
77281;BME280;66339;47.262;17.144;2023-12-20T07:26:17;99994.25;;;20.04;37.45
77281;BME280;66339;47.262;17.144;2023-12-20T07:28:49;99995.06;;;20.04;37.59
77281;BME280;66339;47.262;17.144;2023-12-20T07:31:19;99995.06;;;20.04;37.54
77281;BME280;66339;47.262;17.144;2023-12-20T07:33:55;99984.34;;;20.04;37.43
77281;BME280;66339;47.262;17.144;2023-12-20T07:36:22;99980.03;;;20.03;37.35
77281;BME280;66339;47.262;17.144;2023-12-20T07:38:52;99982.72;;;20.03;37.26
77281;BME280;66339;47.262;17.144;2023-12-20T07:41:19;99991.06;;;20.02;37.20
77281;BME280;66339;47.262;17.144;2023-12-20T07:43:49;99995.63;;;20.01;37.17
77281;BME280;66339;47.262;17.144;2023-12-20T07:46:22;99988.94;;;19.99;37.36
77281;BME280;66339;47.262;17.144;2023-12-20T07:48:53;99987.63;;;19.96;37.53
77281;BME280;66339;47.262;17.144;2023-12-20T07:51:23;99991.94;;;19.97;37.72
77281;BME280;66339;47.262;17.144;2023-12-20T07:53:58;99989.25;;;19.97;37.74
77281;BME280;66339;47.262;17.144;2023-12-20T07:56:25;99982.25;;;19.96;37.80
77281;BME280;66339;47.262;17.144;2023-12-20T07:58:52;99979.56;;;19.96;37.89
77281;BME280;66339;47.262;17.144;2023-12-20T08:01:20;99980.66;;;19.95;37.99
77281;BME280;66339;47.262;17.144;2023-12-20T08:03:49;99983.34;;;19.95;37.90
77281;BME280;66339;47.262;17.144;2023-12-20T08:06:17;99979.06;;;19.94;37.79
77281;BME280;66339;47.262;17.144;2023-12-20T08:08:44;99979.66;;;19.91;38.04
77281;BME280;66339;47.262;17.144;2023-12-20T08:11:18;99995.75;;;19.91;38.18
77281;BME280;66339;47.262;17.144;2023-12-20T08:13:51;99987.31;;;19.79;31.83
77281;BME280;66339;47.262;17.144;2023-12-20T08:16:22;99975.94;;;19.34;31.97
77281;BME280;66339;47.262;17.144;2023-12-20T08:18:51;99976.03;;;19.24;34.22
77281;BME280;66339;47.262;17.144;2023-12-20T08:21:18;99973.88;;;19.26;35.92
77281;BME280;66339;47.262;17.144;2023-12-20T08:23:46;99967.38;;;19.32;36.73
77281;BME280;66339;47.262;17.144;2023-12-20T08:26:18;99981.53;;;19.37;37.77
77281;BME280;66339;47.262;17.144;2023-12-20T08:28:46;99982.28;;;19.43;38.22
77281;BME280;66339;47.262;17.144;2023-12-20T08:31:19;99982.44;;;19.52;38.69
77281;BME280;66339;47.262;17.144;2023-12-20T08:33:47;99977.31;;;19.55;39.11
77281;BME280;66339;47.262;17.144;2023-12-20T08:36:15;99984.28;;;19.56;39.81
77281;BME280;66339;47.262;17.144;2023-12-20T08:38:45;99979.16;;;19.60;39.28
77281;BME280;66339;47.262;17.144;2023-12-20T08:41:16;99979.94;;;19.60;38.58
77281;BME280;66339;47.262;17.144;2023-12-20T08:43:43;99982.41;;;19.62;38.70
77281;BME280;66339;47.262;17.144;2023-12-20T08:46:10;99990.16;;;19.64;38.69
77281;BME280;66339;47.262;17.144;2023-12-20T08:48:37;99994.41;;;19.65;38.71
77281;BME280;66339;47.262;17.144;2023-12-20T08:51:08;100000.31;;;19.67;38.75
77281;BME280;66339;47.262;17.144;2023-12-20T08:53:38;100008.06;;;19.68;38.73
77281;BME280;66339;47.262;17.144;2023-12-20T08:56:06;100010.47;;;19.70;38.71
77281;BME280;66339;47.262;17.144;2023-12-20T08:58:32;100018.25;;;19.71;38.70
77281;BME280;66339;47.262;17.144;2023-12-20T09:01:05;100029.50;;;19.73;38.71
77281;BME280;66339;47.262;17.144;2023-12-20T09:03:32;100026.53;;;19.75;38.74
77281;BME280;66339;47.262;17.144;2023-12-20T09:05:59;100020.06;;;19.76;38.73
77281;BME280;66339;47.262;17.144;2023-12-20T09:08:29;100027.84;;;19.77;38.73
77281;BME280;66339;47.262;17.144;2023-12-20T09:10:56;100024.06;;;19.78;38.74
77281;BME280;66339;47.262;17.144;2023-12-20T09:13:23;100034.50;;;19.80;38.73
77281;BME280;66339;47.262;17.144;2023-12-20T09:15:50;100029.94;;;19.80;38.74
77281;BME280;66339;47.262;17.144;2023-12-20T09:18:24;100035.03;;;19.82;38.76
77281;BME280;66339;47.262;17.144;2023-12-20T09:20:54;100036.63;;;19.83;38.77
77281;BME280;66339;47.262;17.144;2023-12-20T09:23:24;100035.53;;;19.84;38.75
77281;BME280;66339;47.262;17.144;2023-12-20T09:25:57;100030.72;;;19.86;38.78
77281;BME280;66339;47.262;17.144;2023-12-20T09:28:24;100035.28;;;19.85;38.75
77281;BME280;66339;47.262;17.144;2023-12-20T09:30:56;100025.03;;;19.87;38.74
77281;BME280;66339;47.262;17.144;2023-12-20T09:33:26;100026.94;;;19.87;38.78
77281;BME280;66339;47.262;17.144;2023-12-20T09:35:57;100020.19;;;19.90;38.72
77281;BME280;66339;47.262;17.144;2023-12-20T09:38:24;100016.72;;;19.89;38.73
77281;BME280;66339;47.262;17.144;2023-12-20T09:40:53;100012.94;;;19.90;38.72
77281;BME280;66339;47.262;17.144;2023-12-20T09:43:24;100011.84;;;19.91;38.71
77281;BME280;66339;47.262;17.144;2023-12-20T09:45:54;100011.84;;;19.91;38.65
77281;BME280;66339;47.262;17.144;2023-12-20T09:48:26;100012.38;;;19.93;38.67
77281;BME280;66339;47.262;17.144;2023-12-20T09:50:55;100001.66;;;19.93;38.67
77281;BME280;66339;47.262;17.144;2023-12-20T09:53:25;100005.91;;;19.94;38.66
77281;BME280;66339;47.262;17.144;2023-12-20T09:55:58;100000.56;;;19.94;38.68
77281;BME280;66339;47.262;17.144;2023-12-20T10:01:30;100001.34;;;19.95;38.66
77281;BME280;66339;47.262;17.144;2023-12-20T10:03:59;99998.38;;;19.96;38.59
77281;BME280;66339;47.262;17.144;2023-12-20T10:06:27;99994.09;;;19.95;38.61
77281;BME280;66339;47.262;17.144;2023-12-20T10:08:53;99991.13;;;19.97;38.56
77281;BME280;66339;47.262;17.144;2023-12-20T10:11:24;99989.25;;;19.97;38.60
77281;BME280;66339;47.262;17.144;2023-12-20T10:13:59;99989.25;;;19.97;38.60
77281;BME280;66339;47.262;17.144;2023-12-20T10:16:27;99980.09;;;19.98;38.59
77281;BME280;66339;47.262;17.144;2023-12-20T10:18:54;99988.16;;;19.98;38.56
77281;BME280;66339;47.262;17.144;2023-12-20T10:21:27;99990.84;;;19.98;38.57
77281;BME280;66339;47.262;17.144;2023-12-20T10:23:55;99966.69;;;19.98;38.57
77281;BME280;66339;47.262;17.144;2023-12-20T10:26:23;99970.69;;;20.01;38.51
77281;BME280;66339;47.262;17.144;2023-12-20T10:28:59;99970.37;;;20.02;38.46
77281;BME280;66339;47.262;17.144;2023-12-20T10:31:30;99959.16;;;20.00;38.50
77281;BME280;66339;47.262;17.144;2023-12-20T10:33:59;99963.44;;;20.01;38.46
77281;BME280;66339;47.262;17.144;2023-12-20T10:36:30;99948.91;;;20.02;38.44
77281;BME280;66339;47.262;17.144;2023-12-20T10:38:58;99959.66;;;20.02;38.44
77281;BME280;66339;47.262;17.144;2023-12-20T10:41:30;99958.56;;;20.03;38.42
77281;BME280;66339;47.262;17.144;2023-12-20T10:44:04;99948.91;;;20.02;38.42
77281;BME280;66339;47.262;17.144;2023-12-20T10:46:34;99947.03;;;20.03;38.37
77281;BME280;66339;47.262;17.144;2023-12-20T10:49:05;99934.38;;;20.03;38.37
77281;BME280;66339;47.262;17.144;2023-12-20T10:51:33;99938.97;;;20.03;38.36
77281;BME280;66339;47.262;17.144;2023-12-20T10:54:00;99944.34;;;20.03;38.39
77281;BME280;66339;47.262;17.144;2023-12-20T10:56:32;99931.72;;;20.03;38.36
77281;BME280;66339;47.262;17.144;2023-12-20T10:59:02;99929.03;;;20.03;38.36
77281;BME280;66339;47.262;17.144;2023-12-20T11:01:29;99923.66;;;20.03;38.34
77281;BME280;66339;47.262;17.144;2023-12-20T11:03:57;99924.44;;;20.04;38.33
77281;BME280;66339;47.262;17.144;2023-12-20T11:06:40;99933.31;;;20.04;38.33
77281;BME280;66339;47.262;17.144;2023-12-20T11:09:29;99937.88;;;20.04;38.33
77281;BME280;66339;47.262;17.144;2023-12-20T11:12:19;99919.06;;;20.04;38.21
77281;BME280;66339;47.262;17.144;2023-12-20T11:14:51;99930.91;;;20.03;38.18
77281;BME280;66339;47.262;17.144;2023-12-20T11:17:20;99927.44;;;20.02;38.19
77281;BME280;66339;47.262;17.144;2023-12-20T11:22:24;99914.56;;;19.99;38.29
77281;BME280;66339;47.262;17.144;2023-12-20T11:24:58;99918.88;;;20.00;38.30
77281;BME280;66339;47.262;17.144;2023-12-20T11:27:25;99904.94;;;19.98;38.32
77281;BME280;66339;47.262;17.144;2023-12-20T11:29:56;99917.25;;;19.99;38.31
77281;BME280;66339;47.262;17.144;2023-12-20T11:34:55;99926.41;;;19.98;38.35
77281;BME280;66339;47.262;17.144;2023-12-20T11:37:29;99906.81;;;19.98;38.33
77281;BME280;66339;47.262;17.144;2023-12-20T11:39:58;99914.09;;;19.97;38.36
77281;BME280;66339;47.262;17.144;2023-12-20T11:42:26;99914.09;;;19.97;38.36
77281;BME280;66339;47.262;17.144;2023-12-20T11:44:53;99915.16;;;19.96;38.34
77281;BME280;66339;47.262;17.144;2023-12-20T11:47:20;99901.72;;;19.96;38.35
77281;BME280;66339;47.262;17.144;2023-12-20T11:49:50;99903.63;;;19.96;38.38
77281;BME280;66339;47.262;17.144;2023-12-20T11:52:17;99905.50;;;19.95;38.37
77281;BME280;66339;47.262;17.144;2023-12-20T11:54:48;99903.91;;;19.94;38.36
77281;BME280;66339;47.262;17.144;2023-12-20T11:57:15;99895.34;;;19.92;38.38
77281;BME280;66339;47.262;17.144;2023-12-20T11:59:42;99896.16;;;19.93;38.38
77281;BME280;66339;47.262;17.144;2023-12-20T12:02:14;99899.66;;;19.93;38.35
77281;BME280;66339;47.262;17.144;2023-12-20T12:04:41;99891.06;;;19.91;38.38
77281;BME280;66339;47.262;17.144;2023-12-20T12:07:08;99895.34;;;19.92;38.35
77281;BME280;66339;47.262;17.144;2023-12-20T12:09:38;99886.50;;;19.92;37.16
77281;BME280;66339;47.262;17.144;2023-12-20T12:12:06;99899.69;;;19.88;37.29
77281;BME280;66339;47.262;17.144;2023-12-20T12:14:38;99878.81;;;19.85;38.29
77281;BME280;66339;47.262;17.144;2023-12-20T12:17:15;99891.16;;;19.86;38.90
77281;BME280;66339;47.262;17.144;2023-12-20T12:19:43;99877.44;;;19.87;39.40
77281;BME280;66339;47.262;17.144;2023-12-20T12:22:14;99893.75;;;19.91;39.31
77281;BME280;66339;47.262;17.144;2023-12-20T12:24:46;99882.44;;;19.94;39.32
77281;BME280;66339;47.262;17.144;2023-12-20T12:27:13;99881.34;;;19.95;39.44
77281;BME280;66339;47.262;17.144;2023-12-20T12:29:44;99887.25;;;19.97;39.43
77281;BME280;66339;47.262;17.144;2023-12-20T12:32:26;99878.09;;;19.98;39.59
77281;BME280;66339;47.262;17.144;2023-12-20T12:34:53;99882.88;;;20.01;39.43
77281;BME280;66339;47.262;17.144;2023-12-20T12:37:20;99882.59;;;20.03;39.25
77281;BME280;66339;47.262;17.144;2023-12-20T12:39:47;99876.94;;;20.04;39.14
77281;BME280;66339;47.262;17.144;2023-12-20T12:42:17;99876.94;;;20.04;39.05
77281;BME280;66339;47.262;17.144;2023-12-20T12:44:44;99873.16;;;20.05;38.97
77281;BME280;66339;47.262;17.144;2023-12-20T12:47:16;99883.91;;;20.05;38.92
77281;BME280;66339;47.262;17.144;2023-12-20T12:49:49;99881.22;;;20.05;38.88
77281;BME280;66339;47.262;17.144;2023-12-20T12:52:25;99886.59;;;20.05;38.84
77281;BME280;66339;47.262;17.144;2023-12-20T12:54:56;99890.06;;;20.06;38.81
77281;BME280;66339;47.262;17.144;2023-12-20T12:57:26;99880.13;;;20.06;38.78
77281;BME280;66339;47.262;17.144;2023-12-20T12:59:56;99873.97;;;20.06;38.72
77281;BME280;66339;47.262;17.144;2023-12-20T13:02:28;99887.69;;;20.04;38.72
77281;BME280;66339;47.262;17.144;2023-12-20T13:04:55;99871.59;;;20.04;38.71
77281;BME280;66339;47.262;17.144;2023-12-20T13:07:27;99866.22;;;20.04;38.68
77281;BME280;66339;47.262;17.144;2023-12-20T13:09:54;99858.16;;;20.04;38.68